Time;durP1;ratioP1;P1;durP2;ratioP2;P2;SDS_P1;SDS_P2;PMS_P1;PMS_P2;Temp;Humidity;BMP_temperature;BMP_pressure;BME280_temperature;BME280_humidity;BME280_pressure;Samples;Min_cycle;Max_cycle;Signal;HPM_P1;HPM_P2
2022/10/02 00:00:15;;;;;;;33.35;5.20;;;11.10;99.90;;;9.88;100.00;100330.63;4947952;28;20222;-76
2022/10/02 00:02:47;;;;;;;33.10;5.45;;;11.10;99.90;;;9.88;100.00;100331.47;4975364;28;20043;-76
2022/10/02 00:05:35;;;;;;;36.83;6.25;;;11.10;99.90;;;9.89;100.00;100329.69;4967113;28;20118;-75
2022/10/02 00:08:26;;;;;;;25.20;5.88;;;11.10;99.90;;;9.85;100.00;100332.50;4936361;28;20454;-76
2022/10/02 00:11:07;;;;;;;35.05;6.22;;;11.10;99.90;;;9.84;100.00;100332.56;4965184;28;20412;-76
2022/10/02 00:13:43;;;;;;;37.40;6.47;;;11.10;99.90;;;9.83;100.00;100338.75;4965289;28;20074;-76
2022/10/02 00:16:38;;;;;;;40.33;6.10;;;11.10;99.90;;;9.82;100.00;100334.41;4981157;28;20035;-76
2022/10/02 00:19:04;;;;;;;31.60;5.85;;;11.00;99.90;;;9.81;100.00;100337.97;4968057;28;20113;-76
2022/10/02 00:22:04;;;;;;;37.53;5.85;;;11.00;99.90;;;9.81;100.00;100336.19;4954809;28;20046;-76
2022/10/02 00:25:01;;;;;;;33.75;5.07;;;11.00;99.90;;;9.80;100.00;100341.53;4969981;28;20067;-76
2022/10/02 00:27:58;;;;;;;37.85;6.28;;;11.00;99.90;;;9.78;100.00;100340.75;4952873;28;20082;-75
2022/10/02 00:30:24;;;;;;;36.80;5.40;;;11.00;99.90;;;9.76;100.00;100340.84;4968990;28;20035;-76
2022/10/02 00:33:11;;;;;;;27.35;5.20;;;11.00;99.90;;;9.76;100.00;100339.97;4949563;28;20042;-76
2022/10/02 00:36:00;;;;;;;29.90;5.25;;;11.00;99.90;;;9.74;100.00;100347.06;4962008;28;20492;-75
2022/10/02 00:38:44;;;;;;;26.50;5.18;;;10.90;99.90;;;9.74;100.00;100344.44;4941960;28;20487;-76
2022/10/02 00:41:19;;;;;;;27.83;5.20;;;10.90;99.90;;;9.73;100.00;100343.59;4966385;28;20396;-76
2022/10/02 00:44:15;;;;;;;36.10;5.57;;;10.90;99.90;;;9.71;100.00;100349.88;4963448;28;20081;-75
2022/10/02 00:47:00;;;;;;;31.50;5.10;;;10.90;99.90;;;9.70;100.00;100354.28;4964629;28;20093;-76
2022/10/02 00:49:46;;;;;;;39.40;5.28;;;10.90;99.90;;;9.70;100.00;100350.78;4970151;28;20100;-75
2022/10/02 00:53:12;;;;;;;30.70;4.95;;;10.90;99.90;;;9.69;100.00;100351.72;4964714;28;20534;-75
2022/10/02 00:56:36;;;;;;;20.95;3.95;;;10.90;99.90;;;9.65;100.00;100361.53;4982198;28;20464;-75
2022/10/02 00:59:30;;;;;;;28.50;4.60;;;10.90;99.90;;;9.61;100.00;100355.59;4944275;28;20043;-76
2022/10/02 01:02:30;;;;;;;23.30;4.25;;;10.80;99.90;;;9.60;100.00;100360.91;4964704;28;20022;-76
2022/10/02 01:05:07;;;;;;;30.17;4.50;;;10.80;99.90;;;9.58;100.00;100366.22;4982612;28;20026;-75
2022/10/02 01:07:37;;;;;;;26.60;4.35;;;10.80;99.90;;;9.57;100.00;100364.53;4938689;28;20089;-76
2022/10/02 01:10:04;;;;;;;28.50;4.97;;;10.80;99.90;;;9.59;100.00;100367.06;4980283;28;20479;-75
2022/10/02 01:12:29;;;;;;;25.92;4.40;;;10.80;99.90;;;9.59;100.00;100378.47;4964726;28;20106;-76
2022/10/02 01:14:55;;;;;;;21.50;4.15;;;10.80;99.90;;;9.58;100.00;100374.13;4971949;28;20031;-76
2022/10/02 01:17:33;;;;;;;26.27;4.07;;;10.80;99.90;;;9.57;100.00;100380.31;4964442;28;20311;-76
2022/10/02 01:20:04;;;;;;;30.65;4.32;;;10.80;99.90;;;9.55;100.00;100374.28;4977499;28;20683;-74
2022/10/02 01:22:48;;;;;;;26.83;4.25;;;10.80;99.90;;;9.54;100.00;100384.84;4960349;28;20407;-76
2022/10/02 01:25:14;;;;;;;27.25;3.78;;;10.70;99.90;;;9.51;100.00;100385.84;4961315;28;20066;-76
2022/10/02 01:27:40;;;;;;;25.38;3.90;;;10.70;99.90;;;9.49;100.00;100382.44;4967514;28;20059;-76
2022/10/02 01:30:11;;;;;;;24.27;4.03;;;10.70;99.90;;;9.50;100.00;100385.91;4963039;28;20033;-75
2022/10/02 01:32:45;;;;;;;32.15;4.18;;;10.70;99.90;;;9.47;100.00;100381.66;4961029;28;20098;-76
2022/10/02 01:35:11;;;;;;;30.75;4.20;;;10.70;99.90;;;9.45;100.00;100399.28;4945313;28;20034;-76
2022/10/02 01:37:43;;;;;;;23.63;3.92;;;10.70;99.90;;;9.45;100.00;100397.50;4957097;28;20029;-76
2022/10/02 01:40:33;;;;;;;28.10;3.70;;;10.70;99.90;;;9.45;100.00;100394.03;4965362;28;20035;-76
2022/10/02 01:43:08;;;;;;;22.95;3.70;;;10.70;99.90;;;9.44;100.00;100394.97;4963369;28;20031;-76
2022/10/02 01:46:00;;;;;;;19.50;3.45;;;10.70;99.90;;;9.43;100.00;100398.50;4964489;28;20034;-76
2022/10/02 01:48:32;;;;;;;25.98;3.83;;;10.70;99.90;;;9.44;100.00;100397.59;4963586;28;20031;-76
2022/10/02 01:51:45;;;;;;;17.35;3.08;;;10.70;99.90;;;9.42;100.00;100407.31;4971557;28;20037;-76
2022/10/02 01:54:41;;;;;;;30.52;3.65;;;10.60;99.90;;;9.38;100.00;100397.88;4961203;28;20031;-76
2022/10/02 01:57:19;;;;;;;19.88;3.35;;;10.60;99.90;;;9.35;100.00;100398.88;4978377;28;20035;-76
2022/10/02 02:00:14;;;;;;;25.38;3.47;;;10.60;99.90;;;9.36;100.00;100404.97;4931541;28;20031;-76
2022/10/02 02:03:23;;;;;;;20.15;3.15;;;10.60;99.90;;;9.33;100.00;100399.84;4962627;28;20162;-76
2022/10/02 02:06:00;;;;;;;21.02;3.22;;;10.60;99.90;;;9.31;100.00;100410.44;4964401;28;20042;-75
2022/10/02 02:08:41;;;;;;;24.90;3.40;;;10.60;99.90;;;9.31;100.00;100409.56;4962065;28;20031;-75
2022/10/02 02:11:16;;;;;;;26.60;3.55;;;10.50;99.90;;;9.29;100.00;100414.91;4961616;28;20126;-75
2022/10/02 02:13:52;;;;;;;25.02;2.67;;;10.50;99.90;;;9.29;100.00;100411.41;4950195;28;20031;-76
2022/10/02 02:16:45;;;;;;;23.42;2.90;;;10.50;99.90;;;9.28;100.00;100415.81;4965026;28;20483;-76
2022/10/02 02:19:35;;;;;;;20.35;2.78;;;10.50;99.90;;;9.28;100.00;100415.81;4963115;28;20069;-76
2022/10/02 02:22:12;;;;;;;15.68;2.72;;;10.50;99.90;;;9.26;100.00;100416.81;4963012;28;20023;-76
2022/10/02 02:24:51;;;;;;;24.35;3.03;;;10.50;99.90;;;9.26;100.00;100422.09;4952726;28;20038;-76
2022/10/02 02:27:23;;;;;;;12.85;2.40;;;10.50;99.90;;;9.25;100.00;100415.97;4933033;28;20066;-76
2022/10/02 02:29:54;;;;;;;21.23;2.88;;;10.50;99.90;;;9.26;100.00;100422.94;4945913;28;20058;-76
2022/10/02 02:32:29;;;;;;;12.95;2.40;;;10.50;99.90;;;9.25;100.00;100421.25;4959864;28;20130;-76
2022/10/02 02:35:08;;;;;;;14.48;2.42;;;10.50;99.90;;;9.24;100.00;100428.28;4963400;28;20490;-76
2022/10/02 02:37:39;;;;;;;27.10;3.55;;;10.50;99.90;;;9.21;100.00;100425.78;4963467;28;20050;-75
2022/10/02 02:40:11;;;;;;;14.45;2.63;;;10.50;99.90;;;9.19;100.00;100430.25;4967382;28;20026;-75
2022/10/02 02:42:47;;;;;;;18.75;2.38;;;10.50;99.90;;;9.19;100.00;100432.88;4964130;28;20087;-75
2022/10/02 02:45:23;;;;;;;25.30;3.35;;;10.40;99.90;;;9.20;100.00;100442.47;4959640;28;20109;-76
2022/10/02 02:47:57;;;;;;;20.90;3.67;;;10.40;99.90;;;9.20;100.00;100441.59;4971482;28;20098;-76
2022/10/02 02:50:40;;;;;;;18.50;2.67;;;10.50;99.90;;;9.20;100.00;100438.97;4949326;28;20122;-75
2022/10/02 02:53:15;;;;;;;14.65;3.17;;;10.40;99.90;;;9.19;100.00;100443.38;4953025;28;20088;-76
2022/10/02 02:55:54;;;;;;;15.30;2.60;;;10.40;99.90;;;9.19;100.00;100440.75;4944912;28;20062;-76
2022/10/02 02:58:46;;;;;;;15.85;2.78;;;10.40;99.90;;;9.18;100.00;100435.59;4966784;28;20043;-76
2022/10/02 03:01:12;;;;;;;23.55;3.00;;;10.40;99.90;;;9.16;100.00;100434.81;4966800;28;20484;-76
2022/10/02 03:03:38;;;;;;;15.98;2.60;;;10.40;99.90;;;9.15;100.00;100449.69;4978557;28;20054;-76
2022/10/02 03:06:16;;;;;;;26.70;3.53;;;10.40;99.90;;;9.15;100.00;100449.69;4968317;28;20027;-75
2022/10/02 03:08:42;;;;;;;21.27;2.80;;;10.40;99.90;;;9.16;100.00;100454.03;4961061;28;20042;-76
2022/10/02 03:11:49;;;;;;;19.13;3.17;;;10.40;99.90;;;9.18;100.00;100454.81;4968045;28;20031;-75
2022/10/02 03:14:53;;;;;;;26.53;2.80;;;10.40;99.90;;;9.19;100.00;100455.66;4946547;28;20043;-76
2022/10/02 03:17:30;;;;;;;19.90;2.90;;;10.40;99.90;;;9.17;100.00;100465.38;4962900;28;20400;-76
2022/10/02 03:20:10;;;;;;;18.35;3.30;;;10.40;99.90;;;9.15;100.00;100462.81;4962799;28;20113;-75
2022/10/02 03:23:04;;;;;;;26.35;3.83;;;10.40;99.90;;;9.16;100.00;100461.06;4961438;28;20037;-76
2022/10/02 03:25:45;;;;;;;25.42;2.92;;;10.40;99.90;;;9.23;100.00;100459.88;4941037;28;20030;-76
2022/10/02 03:28:18;;;;;;;25.55;3.00;;;10.50;99.90;;;9.28;100.00;100467.53;4979214;28;20093;-75
2022/10/02 03:30:45;;;;;;;26.42;3.70;;;10.50;99.90;;;9.31;100.00;100464.75;4946474;28;20027;-74
2022/10/02 03:33:15;;;;;;;25.98;3.88;;;10.60;99.90;;;9.37;100.00;100461.84;4955888;28;20042;-77
2022/10/02 03:35:45;;;;;;;27.30;4.10;;;10.60;99.90;;;9.42;100.00;100462.50;4978321;28;20073;-76
2022/10/02 03:38:13;;;;;;;18.70;3.58;;;10.60;99.90;;;9.47;100.00;100464.91;4968611;28;20512;-77
2022/10/02 03:40:39;;;;;;;22.75;4.00;;;10.70;99.90;;;9.52;100.00;100461.13;4962832;28;20110;-76
2022/10/02 03:43:06;;;;;;;28.00;4.30;;;10.70;99.90;;;9.59;100.00;100469.59;4971295;28;20027;-76
2022/10/02 03:45:32;;;;;;;22.00;5.00;;;10.80;99.90;;;9.65;100.00;100466.69;4948900;28;20035;-76
2022/10/02 03:47:57;;;;;;;24.50;4.13;;;10.90;99.90;;;9.71;100.00;100463.75;4968156;28;20038;-75
2022/10/02 03:50:23;;;;;;;21.10;4.68;;;10.90;99.90;;;9.75;100.00;100473.22;4974599;28;20027;-76
2022/10/02 03:52:53;;;;;;;34.13;5.15;;;10.90;99.90;;;9.79;100.00;100468.69;4970380;28;20407;-76
2022/10/02 03:55:34;;;;;;;22.65;5.00;;;10.90;99.90;;;9.79;100.00;100473.94;4962917;28;20034;-76
2022/10/02 03:58:14;;;;;;;27.63;5.03;;;11.00;99.90;;;9.78;100.00;100470.47;4968678;28;20026;-76
2022/10/02 04:01:30;;;;;;;30.00;5.55;;;11.00;99.90;;;9.79;100.00;100466.03;4937550;28;20019;-77
2022/10/02 04:04:16;;;;;;;30.60;5.18;;;11.00;99.90;;;9.77;100.00;100467.91;4964577;28;20146;-75
2022/10/02 04:06:53;;;;;;;28.50;4.80;;;10.90;99.90;;;9.76;100.00;100468.81;4979308;28;20047;-76
2022/10/02 04:09:29;;;;;;;31.33;5.80;;;11.00;99.90;;;9.74;100.00;100476.78;4980991;28;20337;-76
2022/10/02 04:12:07;;;;;;;23.33;5.03;;;10.90;99.90;;;9.71;100.00;100481.31;4953381;28;20059;-76
2022/10/02 04:15:01;;;;;;;32.10;4.95;;;10.90;99.90;;;9.65;100.00;100474.56;4934277;28;20059;-76
2022/10/02 04:18:05;;;;;;;27.23;5.70;;;10.90;99.90;;;9.59;100.00;100480.09;4968350;28;20039;-76
2022/10/02 04:21:41;;;;;;;22.27;4.43;;;10.80;99.90;;;9.48;100.00;100470.13;4932862;28;20055;-76
2022/10/02 04:24:17;;;;;;;30.27;5.65;;;10.70;99.90;;;9.39;100.00;100474.00;4974710;28;20043;-75
2022/10/02 04:27:01;;;;;;;24.90;4.70;;;10.60;99.90;;;9.33;100.00;100469.03;4965451;28;20446;-77
2022/10/02 04:29:36;;;;;;;21.02;5.43;;;10.60;99.90;;;9.29;100.00;100470.09;4970717;28;20038;-77
2022/10/02 04:32:18;;;;;;;17.95;4.57;;;10.60;99.90;;;9.26;100.00;100475.47;4945246;28;20094;-77
2022/10/02 04:34:43;;;;;;;27.05;4.68;;;10.50;99.90;;;9.22;100.00;100480.03;4965936;28;20035;-76
2022/10/02 04:38:06;;;;;;;22.45;4.75;;;10.50;99.90;;;9.19;100.00;100479.31;4972132;28;20443;-76
2022/10/02 04:40:35;;;;;;;28.98;4.70;;;10.40;99.90;;;9.12;100.00;100483.97;4981829;28;20407;-76
2022/10/02 04:43:27;;;;;;;26.65;4.80;;;10.40;99.90;;;9.09;100.00;100481.47;4968184;28;20032;-76
2022/10/02 04:46:19;;;;;;;28.88;4.65;;;10.30;99.90;;;9.05;100.00;100482.56;4963842;28;20062;-76
2022/10/02 04:49:26;;;;;;;26.52;4.20;;;10.30;99.90;;;9.02;100.00;100480.91;4965668;28;20038;-76
2022/10/02 04:52:57;;;;;;;28.15;4.72;;;10.30;99.90;;;8.98;100.00;100483.72;4965096;28;20066;-77
2022/10/02 04:55:50;;;;;;;34.28;4.60;;;10.20;99.90;;;8.93;100.00;100485.72;4964249;28;20043;-75
2022/10/02 04:58:48;;;;;;;19.73;3.92;;;10.20;99.90;;;8.91;100.00;100488.41;4966630;28;20030;-76
2022/10/02 05:01:40;;;;;;;27.45;5.13;;;10.10;99.90;;;8.87;100.00;100502.56;4953310;28;20030;-76
2022/10/02 05:04:36;;;;;;;32.22;4.57;;;10.10;99.90;;;8.87;100.00;100493.84;4965294;28;20038;-75
2022/10/02 05:07:38;;;;;;;26.10;4.45;;;10.10;99.90;;;8.87;100.00;100504.34;4946850;28;20103;-76
2022/10/02 05:10:32;;;;;;;20.08;4.00;;;10.10;99.90;;;8.88;100.00;100506.94;4963023;28;20035;-77
2022/10/02 05:13:54;;;;;;;25.67;4.13;;;10.10;99.90;;;8.88;100.00;100513.97;4981596;28;20319;-76
2022/10/02 05:16:27;;;;;;;28.40;4.25;;;10.10;99.90;;;8.88;100.00;100522.69;4926928;28;20508;-77
2022/10/02 05:19:26;;;;;;;24.55;4.40;;;10.10;99.90;;;8.92;100.00;100516.38;4965968;28;20027;-77
2022/10/02 05:22:36;;;;;;;21.88;4.55;;;10.20;99.90;;;8.95;100.00;100513.59;4948493;28;20122;-77
2022/10/02 05:25:45;;;;;;;27.58;4.65;;;10.10;99.90;;;8.98;100.00;100517.88;4967864;28;20039;-77
2022/10/02 05:28:28;;;;;;;25.08;4.28;;;10.20;99.90;;;9.01;100.00;100508.09;4965101;28;20031;-76
2022/10/02 05:31:27;;;;;;;19.08;4.10;;;10.20;99.90;;;9.05;100.00;100524.59;4960969;28;20035;-77
2022/10/02 05:34:23;;;;;;;28.50;5.05;;;10.20;99.90;;;9.07;100.00;100517.50;4965401;28;20025;-76
2022/10/02 05:37:29;;;;;;;23.67;4.07;;;10.20;99.90;;;9.12;100.00;100519.91;4950518;28;20146;-77
2022/10/02 05:40:13;;;;;;;24.85;3.70;;;10.30;99.90;;;9.17;100.00;100525.81;4966996;28;20348;-77
2022/10/02 05:43:00;;;;;;;28.10;3.90;;;10.30;99.90;;;9.21;100.00;100525.59;4990096;23;20046;-83
2022/10/02 05:45:56;;;;;;;20.33;3.60;;;10.40;99.90;;;9.30;100.00;100523.50;4989668;28;20040;-83
2022/10/02 05:48:44;;;;;;;20.63;3.45;;;10.50;99.90;;;9.47;100.00;100533.25;4945454;28;20046;-83
2022/10/02 05:51:25;;;;;;;18.23;3.40;;;10.60;99.90;;;9.66;100.00;100536.75;4954341;28;20548;-84
2022/10/02 05:54:01;;;;;;;20.92;3.15;;;10.60;99.90;;;9.71;100.00;100533.91;4961757;28;20108;-84
2022/10/02 05:56:43;;;;;;;17.65;3.25;;;10.70;99.90;;;11.35;100.00;100538.16;4964570;28;20085;-83
2022/10/02 05:59:24;;;;;;;22.92;3.15;;;11.30;99.90;;;14.83;100.00;100550.03;4952066;28;20027;-83
2022/10/02 06:01:53;;;;;;;21.88;2.67;;;12.10;99.90;;;14.11;92.30;100537.06;4956783;28;20031;-83
2022/10/02 06:04:39;;;;;;;20.88;3.13;;;12.50;99.90;;;15.06;88.84;100551.16;4966639;28;20042;-83
2022/10/02 06:07:16;;;;;;;11.25;2.10;;;13.10;99.90;;;16.66;78.38;100564.53;4944271;28;20026;-83
2022/10/02 06:09:56;;;;;;;11.55;2.20;;;13.60;99.90;;;14.80;80.67;100552.91;4967386;28;20400;-83
2022/10/02 06:12:37;;;;;;;22.23;2.45;;;13.60;99.90;;;13.86;86.16;100551.84;4960626;28;20027;-84
2022/10/02 06:15:18;;;;;;;15.07;2.55;;;13.50;99.90;;;13.91;88.51;100549.78;4956408;28;20081;-83
2022/10/02 06:18:07;;;;;;;15.68;2.05;;;13.80;99.90;;;18.65;73.25;100571.97;4955840;28;20122;-85
2022/10/02 06:20:57;;;;;;;14.82;2.00;;;14.90;99.90;;;21.42;61.94;100579.63;4956367;28;20519;-83
2022/10/02 06:23:32;;;;;;;14.75;2.08;;;16.20;99.90;;;23.02;57.46;100580.13;4924148;29;20029;-83
2022/10/02 06:26:06;;;;;;;13.70;1.92;;;17.30;99.90;;;24.18;54.38;100582.47;4942671;28;20033;-83
2022/10/02 06:28:50;;;;;;;9.23;2.00;;;18.30;99.90;;;24.94;52.04;100592.19;4953272;28;20502;-84
2022/10/02 06:31:53;;;;;;;11.82;2.03;;;19.20;99.90;;;25.62;49.86;100583.88;4962585;28;20034;-84
2022/10/02 06:34:19;;;;;;;11.65;1.80;;;20.10;99.90;;;26.20;48.67;100598.84;4936423;28;20027;-83
2022/10/02 06:37:26;;;;;;;12.32;1.90;;;20.60;99.90;;;26.54;47.47;100597.63;4963564;28;20064;-82
2022/10/02 06:40:37;;;;;;;9.88;2.38;;;21.10;99.90;;;26.82;46.76;100599.81;4949940;28;20023;-84
2022/10/02 06:43:45;;;;;;;9.00;1.80;;;21.60;99.90;;;27.22;45.44;100605.94;4942479;28;20062;-84
2022/10/02 06:46:45;;;;;;;10.70;1.98;;;22.20;99.90;;;27.80;44.40;100609.72;4937679;28;20027;-84
2022/10/02 06:49:56;;;;;;;7.70;2.15;;;22.60;99.90;;;27.88;43.98;100611.50;4959133;28;20027;-85
2022/10/02 06:52:27;;;;;;;11.73;2.10;;;23.00;99.90;;;28.02;44.40;100610.66;4949404;28;20040;-85
2022/10/02 06:55:48;;;;;;;7.18;1.85;;;23.20;99.90;;;27.69;43.41;100612.88;4956219;28;20029;-85
2022/10/02 06:58:57;;;;;;;12.15;2.10;;;23.50;99.90;;;27.66;43.68;100618.66;4953660;28;20023;-85
2022/10/02 07:01:45;;;;;;;11.30;2.17;;;23.60;99.90;;;27.74;43.78;100629.41;4962625;28;20055;-85
2022/10/02 07:04:45;;;;;;;12.02;2.50;;;23.90;99.90;;;28.13;43.38;100645.34;4937569;29;20051;-84
2022/10/02 07:07:51;;;;;;;13.30;2.55;;;24.20;99.90;;;27.67;44.16;100639.25;4963789;28;20027;-84
2022/10/02 07:10:29;;;;;;;13.73;2.75;;;24.30;99.90;;;27.16;44.61;100638.03;4964987;28;20133;-84
2022/10/02 07:13:24;;;;;;;14.20;2.38;;;24.20;99.90;;;26.10;46.34;100638.69;4964092;28;20126;-84
2022/10/02 07:16:13;;;;;;;7.70;1.90;;;24.00;99.90;;;26.52;45.92;100645.56;4963527;28;20031;-85
2022/10/02 07:19:06;;;;;;;12.23;2.30;;;23.90;99.90;;;24.55;48.54;100638.59;4952214;28;20655;-85
2022/10/02 07:22:11;;;;;;;7.55;1.75;;;23.90;99.90;;;26.26;46.99;100646.69;4927862;28;20039;-84
2022/10/02 07:24:38;;;;;;;11.13;2.53;;;24.40;99.90;;;26.87;46.02;100649.59;4951288;28;20028;-85
2022/10/02 07:27:25;;;;;;;11.43;2.22;;;24.90;99.90;;;26.71;45.53;100639.72;4968292;28;20400;-85
2022/10/02 07:30:05;;;;;;;;;;;24.90;99.90;;;26.94;44.50;100650.53;4967671;28;20028;-83
2022/10/02 07:32:56;;;;;;;8.43;2.00;;;25.80;99.00;;;27.66;44.48;100656.53;4951577;28;20443;-84
2022/10/02 07:36:04;;;;;;;12.60;2.40;;;26.30;99.40;;;27.37;44.64;100650.88;4950600;28;20030;-85
2022/10/02 07:39:05;;;;;;;11.63;2.45;;;26.10;97.50;;;25.81;46.67;100647.34;4963762;28;20047;-84
2022/10/02 07:42:14;;;;;;;11.23;1.77;;;25.60;98.40;;;26.04;47.04;100660.97;4958411;28;20122;-85
2022/10/02 07:45:13;;;;;;;10.90;2.20;;;25.30;98.90;;;24.44;49.10;100654.19;4949690;28;20118;-85
2022/10/02 07:47:52;;;;;;;8.98;1.67;;;24.70;99.60;;;23.65;51.85;100648.91;4951002;28;20032;-85
2022/10/02 07:50:39;;;;;;;11.27;2.17;;;24.20;99.90;;;23.15;51.64;100649.53;4971101;28;20034;-85
2022/10/02 07:53:37;;;;;;;13.43;2.47;;;23.90;99.90;;;23.92;51.01;100658.66;4925856;29;20027;-84
2022/10/02 07:56:10;;;;;;;9.93;1.85;;;24.10;99.90;;;24.60;50.37;100664.16;4969423;28;20404;-84
2022/10/02 07:59:00;;;;;;;8.57;1.77;;;24.60;99.60;;;24.13;49.96;100650.19;4961085;28;20027;-85
2022/10/02 08:01:32;;;;;;;10.18;2.00;;;24.80;99.60;;;24.52;50.41;100665.00;4933201;28;20031;-84
2022/10/02 08:04:12;;;;;;;8.32;1.75;;;25.00;99.40;;;24.94;49.30;100664.91;4959287;28;20060;-84
2022/10/02 08:06:47;;;;;;;8.07;1.60;;;25.50;99.20;;;25.45;49.04;100672.88;4919342;29;20128;-84
2022/10/02 08:09:34;;;;;;;9.82;1.90;;;26.10;99.10;;;26.11;47.90;100672.72;4963217;28;20031;-85
2022/10/02 08:12:31;;;;;;;7.65;2.10;;;26.80;97.50;;;26.26;46.18;100662.06;4945259;28;20027;-84
2022/10/02 08:15:04;;;;;;;14.75;2.17;;;27.20;97.00;;;26.43;46.97;100662.81;4937347;29;20032;-83
2022/10/02 08:17:51;;;;;;;11.95;1.60;;;27.30;95.90;;;26.16;46.65;100659.59;4953699;28;20022;-84
2022/10/02 08:20:41;;;;;;;7.82;1.73;;;27.30;96.20;;;26.05;46.76;100660.81;4952993;28;20034;-85
2022/10/02 08:23:38;;;;;;;6.90;1.63;;;27.20;95.80;;;25.88;46.95;100654.63;4933059;29;20046;-84
2022/10/02 08:26:29;;;;;;;7.60;1.50;;;27.20;95.90;;;25.69;46.49;100658.50;4966846;28;20055;-85
2022/10/02 08:29:40;;;;;;;6.22;1.48;;;27.00;95.70;;;25.60;47.39;100664.94;4940959;28;20147;-85
2022/10/02 08:32:10;;;;;;;6.10;1.73;;;27.00;96.50;;;25.68;47.58;100664.94;4962494;28;20477;-85
2022/10/02 08:34:37;;;;;;;7.15;1.30;;;26.90;96.60;;;25.67;48.12;100665.91;4919413;28;20078;-83
2022/10/02 08:38:29;;;;;;;6.00;1.25;;;26.90;95.80;;;25.48;47.62;100671.69;4965454;28;20058;-85
2022/10/02 08:41:36;;;;;;;6.07;1.45;;;26.20;95.50;;;24.21;49.25;100657.47;4916987;28;20494;-84
2022/10/02 08:44:57;;;;;;;6.45;1.88;;;25.60;96.80;;;23.89;50.25;100656.31;4948584;28;20032;-86
2022/10/02 08:47:32;;;;;;;6.70;1.30;;;24.90;97.20;;;23.33;51.33;100652.22;4960990;28;20054;-85
2022/10/02 08:50:39;;;;;;;8.43;1.40;;;24.40;98.20;;;22.96;51.67;100655.91;4950639;28;20082;-84
2022/10/02 08:54:00;;;;;;;8.73;1.15;;;23.80;98.80;;;22.32;52.63;100650.53;4964189;28;20545;-85
2022/10/02 08:57:05;;;;;;;4.38;1.00;;;23.10;99.80;;;21.84;54.05;100648.88;4954516;28;20046;-84
2022/10/02 09:00:24;;;;;;;6.25;1.02;;;22.70;99.90;;;21.50;54.13;100651.25;4933771;28;20459;-84
2022/10/02 09:02:56;;;;;;;8.05;1.33;;;22.30;99.90;;;21.41;55.02;100657.44;4943303;28;20066;-84
2022/10/02 09:05:56;;;;;;;8.32;1.58;;;22.10;99.90;;;21.29;55.25;100643.34;4959737;28;20038;-85
2022/10/02 09:09:09;;;;;;;7.28;1.25;;;21.80;99.90;;;20.82;55.50;100644.09;4950406;28;20078;-85
2022/10/02 09:12:10;;;;;;;6.45;0.95;;;21.50;99.90;;;20.74;57.25;100645.75;4952171;28;20043;-84
2022/10/02 09:14:48;;;;;;;10.45;1.42;;;21.20;99.90;;;20.31;57.70;100644.25;4952285;28;20070;-85
2022/10/02 09:17:48;;;;;;;6.43;1.35;;;20.70;99.90;;;19.97;60.21;100644.53;4931427;29;21326;-85
2022/10/02 09:20:22;;;;;;;6.30;1.15;;;20.40;99.90;;;19.66;61.31;100648.00;4961103;28;20059;-85
2022/10/02 09:23:24;;;;;;;7.25;1.38;;;20.00;99.90;;;19.29;63.76;100646.78;4963428;28;20034;-84
2022/10/02 09:26:27;;;;;;;6.70;1.60;;;19.70;99.90;;;18.90;66.36;100642.00;4964329;28;20490;-84
2022/10/02 09:29:31;;;;;;;3.53;1.02;;;19.60;99.90;;;18.72;64.94;100628.31;4956016;28;20034;-85
2022/10/02 09:32:43;;;;;;;6.75;1.05;;;19.50;99.90;;;18.58;66.40;100637.47;4951373;28;20039;-84
2022/10/02 09:35:40;;;;;;;4.85;1.17;;;19.20;99.90;;;18.11;67.66;100636.81;4950807;28;20046;-85
2022/10/02 09:39:01;;;;;;;6.60;1.35;;;19.00;99.90;;;17.88;66.44;100621.81;4961508;28;20069;-85
2022/10/02 09:42:10;;;;;;;7.45;1.50;;;18.70;99.90;;;17.63;68.20;100621.88;4950373;28;20066;-83
2022/10/02 09:45:22;;;;;;;8.00;1.52;;;18.50;99.90;;;17.39;69.09;100621.97;4950782;28;20548;-83
2022/10/02 09:48:29;;;;;;;8.15;1.10;;;18.30;99.90;;;17.52;69.74;100615.72;4949922;28;20129;-83
2022/10/02 09:51:40;;;;;;;9.45;1.33;;;18.30;99.90;;;17.60;69.36;100618.59;4964979;28;20039;-85
2022/10/02 09:55:03;;;;;;;3.55;0.90;;;18.40;99.90;;;17.69;69.32;100611.72;4945687;28;20039;-84
2022/10/02 09:58:15;;;;;;;7.63;0.90;;;18.40;99.90;;;17.57;69.31;100617.03;4961796;28;20031;-82
2022/10/02 10:01:34;;;;;;;7.95;1.25;;;18.50;99.90;;;17.64;67.96;100622.72;4964007;28;20058;-84
2022/10/02 10:04:25;;;;;;;10.40;0.93;;;18.40;99.90;;;17.52;67.24;100616.56;4945113;28;20043;-84
2022/10/02 10:07:37;;;;;;;10.02;1.27;;;18.40;99.90;;;17.48;67.20;100612.44;4961975;28;20511;-84
2022/10/02 10:10:37;;;;;;;8.23;0.93;;;18.30;99.90;;;17.48;66.87;100608.94;4964068;28;20195;-83
2022/10/02 10:13:08;;;;;;;4.70;1.08;;;18.30;99.90;;;17.58;67.38;100618.75;4949365;28;20048;-83
2022/10/02 10:16:29;;;;;;;7.82;0.93;;;18.40;99.90;;;17.46;67.36;100606.38;4960458;28;20098;-84
2022/10/02 10:19:57;;;;;;;5.88;1.02;;;18.30;99.90;;;17.14;66.93;100614.16;4959478;28;20039;-84
2022/10/02 10:23:17;;;;;;;5.43;1.00;;;18.00;99.90;;;16.84;67.39;100615.50;4937878;28;20031;-84
2022/10/02 10:26:33;;;;;;;6.50;1.10;;;17.90;99.90;;;17.01;67.95;100625.72;4947725;28;20313;-84
2022/10/02 10:29:40;;;;;;;6.18;0.90;;;17.90;99.90;;;17.18;68.16;100626.28;4946280;28;20507;-82
2022/10/02 10:33:00;;;;;;;9.35;0.82;;;17.90;99.90;;;17.17;69.28;100617.44;4961453;28;20044;-82
2022/10/02 10:38:31;;;;;;;5.22;1.08;;;18.00;99.90;;;17.16;69.11;100617.56;4948355;28;20038;-82
2022/10/02 10:39:35;;;;;;;5.55;0.98;;;17.90;99.90;;;16.83;68.06;100611.16;4951717;28;20118;-82
2022/10/02 10:42:40;;;;;;;7.82;0.90;;;17.80;99.90;;;16.58;70.56;100612.09;4948375;28;20032;-82
2022/10/02 10:45:43;;;;;;;8.15;0.98;;;17.60;99.90;;;16.54;71.77;100626.56;4943449;28;20114;-82
2022/10/02 10:48:58;;;;;;;7.40;1.13;;;17.50;99.90;;;16.63;71.89;100630.34;4948854;28;20067;-82
2022/10/02 10:51:45;;;;;;;7.85;1.30;;;17.50;99.90;;;16.54;72.79;100627.44;4952604;28;20024;-84
2022/10/02 10:54:25;;;;;;;9.10;1.35;;;17.40;99.90;;;16.43;73.11;100621.19;4960603;28;20032;-84
2022/10/02 10:57:12;;;;;;;10.65;1.42;;;17.40;99.90;;;16.59;73.58;100627.94;4963103;28;20059;-85
2022/10/02 10:59:56;;;;;;;9.85;1.70;;;17.40;99.90;;;16.66;73.30;100630.16;4948802;28;20122;-82
2022/10/02 11:03:22;;;;;;;8.65;1.10;;;17.50;99.90;;;16.48;72.42;100619.91;4962144;28;20028;-85
2022/10/02 11:06:34;;;;;;;10.55;1.50;;;17.50;99.90;;;16.86;75.05;100631.34;4947168;28;20042;-82
2022/10/02 11:09:59;;;;;;;10.00;1.35;;;17.60;99.90;;;16.72;71.69;100617.25;4961127;28;20101;-82
2022/10/02 11:13:12;;;;;;;9.18;1.55;;;17.60;99.90;;;16.67;73.73;100627.34;4910488;28;20131;-82
2022/10/02 11:16:12;;;;;;;11.20;1.48;;;17.70;99.90;;;16.78;73.89;100629.22;4880794;29;20065;-82
2022/10/02 11:19:07;;;;;;;7.85;1.38;;;17.70;99.90;;;16.83;72.27;100615.63;4946173;28;20039;-84
2022/10/02 11:21:38;;;;;;;7.25;1.45;;;17.60;99.90;;;16.80;71.95;100614.91;4930212;28;20123;-84
2022/10/02 11:25:08;;;;;;;8.57;1.50;;;17.60;99.90;;;16.66;72.99;100627.50;4948478;28;20067;-82
2022/10/02 11:28:22;;;;;;;9.25;1.48;;;17.50;99.90;;;16.51;72.38;100617.00;4948234;28;20023;-82
2022/10/02 11:31:10;;;;;;;8.60;1.83;;;17.40;99.90;;;16.47;72.45;100626.16;4938047;28;20047;-82
2022/10/02 11:34:23;;;;;;;8.32;1.30;;;17.30;99.90;;;16.28;70.63;100613.34;4946836;28;20067;-81
2022/10/02 11:37:12;;;;;;;5.28;1.38;;;17.20;99.90;;;16.03;71.17;100627.56;4927709;28;20400;-82
2022/10/02 11:40:17;;;;;;;10.05;2.05;;;17.00;99.90;;;15.93;72.01;100626.50;4946207;28;20452;-81
2022/10/02 11:43:24;;;;;;;5.72;1.08;;;16.90;99.90;;;15.88;72.02;100633.97;4935244;28;20055;-84